createdAt,value
2023-03-06T00:00:55.829Z,-0.83
2023-03-06T00:03:24.600Z,-0.86
2023-03-06T00:05:51.962Z,-0.91
2023-03-06T00:08:21.542Z,-0.87
2023-03-06T00:10:51.797Z,-1.10
2023-03-06T00:13:23.659Z,-1.15
2023-03-06T00:16:07.928Z,-0.94
2023-03-06T00:18:35.245Z,-1.13
2023-03-06T00:21:31.744Z,-0.92
2023-03-06T00:24:03.601Z,-0.97
2023-03-06T00:26:31.237Z,-1.05
2023-03-06T00:28:59.676Z,-1.09
2023-03-06T00:31:31.716Z,-1.08
2023-03-06T00:34:00.687Z,-1.11
2023-03-06T00:36:30.946Z,-1.18
2023-03-06T00:38:58.327Z,-1.18
2023-03-06T00:41:25.475Z,-1.27
2023-03-06T00:43:54.930Z,-1.15
2023-03-06T00:46:22.203Z,-1.23
2023-03-06T00:48:52.588Z,-1.19
2023-03-06T00:51:21.974Z,-1.16
2023-03-06T00:53:49.282Z,-1.40
2023-03-06T00:56:18.918Z,-1.18
2023-03-06T00:58:48.601Z,-1.20
2023-03-06T01:01:15.858Z,-1.29
2023-03-06T01:03:43.696Z,-1.24
2023-03-06T01:06:10.915Z,-1.39
2023-03-06T01:08:38.255Z,-1.33
2023-03-06T01:11:05.650Z,-1.31
2023-03-06T01:13:32.828Z,-1.42
2023-03-06T01:16:11.957Z,-1.35
2023-03-06T01:18:42.491Z,-1.32
2023-03-06T01:21:09.711Z,-1.28
2023-03-06T01:23:37.097Z,-1.30
2023-03-06T01:26:05.110Z,-1.39
2023-03-06T01:28:34.598Z,-1.62
2023-03-06T01:31:02.839Z,-1.55
2023-03-06T01:33:39.827Z,-1.57
2023-03-06T01:36:11.709Z,-1.62
2023-03-06T01:38:39.915Z,-1.57
2023-03-06T01:41:08.000Z,-1.60
2023-03-06T01:43:37.789Z,-1.63
2023-03-06T01:46:24.091Z,-1.52
2023-03-06T01:48:57.533Z,-1.67
2023-03-06T01:51:26.545Z,-1.55
2023-03-06T01:53:55.719Z,-1.61
2023-03-06T01:56:24.407Z,-1.67
2023-03-06T01:58:52.216Z,-1.79
2023-03-06T02:01:20.393Z,-1.75
2023-03-06T02:03:50.092Z,-1.80
2023-03-06T02:06:20.138Z,-1.77
2023-03-06T02:08:50.154Z,-1.82
2023-03-06T02:11:22.149Z,-1.84
2023-03-06T02:13:52.675Z,-1.77
2023-03-06T02:16:26.842Z,-1.81
2023-03-06T02:18:54.543Z,-1.76
2023-03-06T02:21:27.625Z,-1.95
2023-03-06T02:24:20.070Z,-1.76
2023-03-06T02:26:48.598Z,-1.85
2023-03-06T02:29:23.020Z,-1.92
2023-03-06T02:31:50.754Z,-1.82
2023-03-06T02:34:21.113Z,-1.84
2023-03-06T02:36:52.515Z,-2.15
2023-03-06T02:39:23.049Z,-1.94
2023-03-06T02:41:50.347Z,-1.96
2023-03-06T02:44:19.116Z,-1.99
2023-03-06T02:46:46.327Z,-1.96
2023-03-06T02:49:13.624Z,-2.04
2023-03-06T02:51:41.177Z,-2.07
2023-03-06T02:54:09.886Z,-2.08
2023-03-06T02:56:37.238Z,-2.17
2023-03-06T02:59:04.745Z,-2.12
2023-03-06T03:01:32.450Z,-2.06
2023-03-06T03:03:59.722Z,-2.19
2023-03-06T03:06:27.770Z,-2.14
2023-03-06T03:08:55.180Z,-2.14
2023-03-06T03:11:22.992Z,-2.12
2023-03-06T03:13:50.316Z,-2.21
2023-03-06T03:16:22.840Z,-2.20
2023-03-06T03:18:51.735Z,-2.18
2023-03-06T03:21:22.005Z,-2.15
2023-03-06T03:23:50.110Z,-2.13
2023-03-06T03:26:21.225Z,-2.25
2023-03-06T03:28:55.329Z,-2.27
2023-03-06T03:31:22.921Z,-2.26
2023-03-06T03:33:50.863Z,-2.27
2023-03-06T03:36:19.711Z,-2.25
2023-03-06T03:38:48.112Z,-2.27
2023-03-06T03:41:15.586Z,-2.26
2023-03-06T03:43:43.581Z,-2.30
2023-03-06T03:46:11.346Z,-2.60
2023-03-06T03:48:39.130Z,-2.39
2023-03-06T03:51:13.472Z,-2.48
2023-03-06T03:53:45.674Z,-2.46
2023-03-06T03:56:15.685Z,-2.46
2023-03-06T03:58:52.148Z,-2.44
2023-03-06T04:01:20.387Z,-2.52
2023-03-06T04:03:48.345Z,-2.42
2023-03-06T04:06:17.535Z,-2.48
2023-03-06T04:08:45.652Z,-2.44
2023-03-06T04:11:13.002Z,-2.36
2023-03-06T04:13:40.271Z,-2.49
2023-03-06T04:16:08.351Z,-2.44
2023-03-06T04:18:38.148Z,-2.50
2023-03-06T04:21:06.841Z,-2.23
2023-03-06T04:23:34.164Z,-2.15
2023-03-06T04:26:01.666Z,-2.14
2023-03-06T04:28:29.210Z,-2.10
2023-03-06T04:30:57.349Z,-2.08
2023-03-06T04:33:25.301Z,-2.05
2023-03-06T04:35:52.816Z,-2.06
2023-03-06T04:38:25.477Z,-1.90
2023-03-06T04:40:52.978Z,-1.90
2023-03-06T04:43:20.230Z,-1.84
2023-03-06T04:45:48.154Z,-1.84
2023-03-06T04:48:17.581Z,-1.86
2023-03-06T04:50:45.610Z,-1.65
2023-03-06T04:53:14.875Z,-1.62
2023-03-06T04:55:42.293Z,-1.66
2023-03-06T04:58:12.541Z,-1.66
2023-03-06T05:00:39.977Z,-1.59
2023-03-06T05:03:16.699Z,-1.64
2023-03-06T05:05:51.560Z,-1.80
2023-03-06T05:08:38.773Z,-1.80
2023-03-06T05:11:13.848Z,-1.52
2023-03-06T05:13:44.875Z,-1.55
2023-03-06T05:16:17.264Z,-1.55
2023-03-06T05:18:51.863Z,-1.49
2023-03-06T05:21:23.793Z,-1.41
2023-03-06T05:26:38.236Z,-1.51
2023-03-06T05:31:55.747Z,-1.22
2023-03-06T05:34:25.800Z,-1.21
2023-03-06T05:37:18.681Z,-1.26
2023-03-06T05:39:57.993Z,-1.21
2023-03-06T05:42:32.209Z,-1.28
2023-03-06T05:45:03.004Z,-1.17
2023-03-06T05:47:35.283Z,-1.23
2023-03-06T05:50:08.411Z,-1.17
2023-03-06T05:52:38.179Z,-1.02
2023-03-06T05:55:06.746Z,-0.97
2023-03-06T05:57:34.154Z,-1.04
2023-03-06T06:00:01.407Z,-1.09
2023-03-06T06:02:29.910Z,-1.00
2023-03-06T06:04:57.891Z,-0.96
2023-03-06T06:07:26.556Z,-0.96
2023-03-06T06:09:54.687Z,-1.17
2023-03-06T06:12:23.258Z,-0.94
2023-03-06T06:14:50.410Z,-0.88
2023-03-06T06:17:17.718Z,-0.86
2023-03-06T06:19:47.898Z,-0.76
2023-03-06T06:22:15.232Z,-0.83
2023-03-06T06:24:42.799Z,-0.74
2023-03-06T06:27:10.589Z,-0.79
2023-03-06T06:29:39.234Z,-0.75
2023-03-06T06:32:06.848Z,-0.77
2023-03-06T06:34:35.006Z,-0.73
2023-03-06T06:37:02.262Z,-0.79
2023-03-06T06:39:31.261Z,-0.63
2023-03-06T06:42:26.644Z,-0.71
2023-03-06T06:44:52.970Z,-0.67
2023-03-06T06:47:23.961Z,-0.68
2023-03-06T06:49:53.045Z,-0.81
2023-03-06T06:52:20.692Z,-0.78
2023-03-06T06:54:48.835Z,-0.80
2023-03-06T06:57:19.064Z,-0.84
2023-03-06T06:59:48.113Z,-0.75
2023-03-06T07:02:16.812Z,-0.77
2023-03-06T07:05:02.109Z,-1.01
2023-03-06T07:07:30.837Z,-0.70
2023-03-06T07:09:57.953Z,-0.74
2023-03-06T07:12:25.334Z,-0.68
2023-03-06T07:14:53.326Z,-0.62
2023-03-06T07:17:20.658Z,-0.47
2023-03-06T07:19:48.456Z,-0.37
2023-03-06T07:22:16.017Z,-0.32
2023-03-06T07:24:43.601Z,-0.30
2023-03-06T07:27:10.970Z,-0.26
2023-03-06T07:29:38.476Z,-0.18
2023-03-06T07:32:07.215Z,-0.20
2023-03-06T07:34:34.837Z,-0.15
2023-03-06T07:37:02.146Z,-0.03
2023-03-06T07:39:30.517Z,-0.04
2023-03-06T07:41:58.934Z,0.07
2023-03-06T07:44:26.675Z,0.05
2023-03-06T07:46:53.965Z,0.13
2023-03-06T07:49:21.181Z,0.04
2023-03-06T07:51:48.685Z,0.28
2023-03-06T07:54:16.033Z,0.36
2023-03-06T07:56:43.206Z,0.41
2023-03-06T07:59:11.668Z,0.50
2023-03-06T08:01:40.457Z,0.58
2023-03-06T08:04:07.986Z,0.68
2023-03-06T08:06:35.387Z,0.80
2023-03-06T08:09:05.898Z,0.76
2023-03-06T08:11:33.656Z,0.94
2023-03-06T08:14:00.903Z,1.01
2023-03-06T08:16:30.608Z,1.16
2023-03-06T08:18:58.381Z,1.26
2023-03-06T08:21:27.727Z,1.23
2023-03-06T08:23:55.579Z,1.68
2023-03-06T08:26:26.363Z,1.84
2023-03-06T08:28:55.676Z,1.87
2023-03-06T08:31:49.937Z,2.15
2023-03-06T08:34:20.677Z,1.88
2023-03-06T08:36:48.040Z,1.99
2023-03-06T08:39:15.257Z,2.24
2023-03-06T08:41:44.129Z,2.35
2023-03-06T08:44:12.384Z,2.35
2023-03-06T08:46:40.126Z,2.48
2023-03-06T08:49:09.224Z,2.47
2023-03-06T08:51:36.987Z,2.60
2023-03-06T08:54:06.708Z,2.79
2023-03-06T08:56:34.641Z,2.73
2023-03-06T08:59:04.256Z,2.97
2023-03-06T09:01:35.315Z,2.72
2023-03-06T09:04:08.798Z,2.81
2023-03-06T09:06:38.771Z,2.85
2023-03-06T09:09:07.845Z,2.95
2023-03-06T09:11:35.433Z,3.05
2023-03-06T09:14:03.424Z,3.17
2023-03-06T09:16:30.791Z,3.32
2023-03-06T09:18:59.064Z,3.20
2023-03-06T09:21:27.520Z,3.53
2023-03-06T09:23:55.092Z,3.58
2023-03-06T09:26:28.063Z,3.51
2023-03-06T09:29:00.818Z,3.56
2023-03-06T09:31:28.804Z,3.65
2023-03-06T09:33:59.762Z,3.73
2023-03-06T09:36:26.971Z,3.77
2023-03-06T09:38:54.347Z,3.83
2023-03-06T09:41:34.061Z,3.89
2023-03-06T09:44:38.938Z,3.80
2023-03-06T09:47:53.250Z,3.75
2023-03-06T09:50:42.526Z,4.10
2023-03-06T09:53:51.364Z,4.13
2023-03-06T09:56:31.340Z,4.25
2023-03-06T09:59:37.178Z,4.30
2023-03-06T10:02:29.851Z,4.39
2023-03-06T10:05:10.446Z,4.54
2023-03-06T10:08:35.091Z,4.59
2023-03-06T10:11:15.642Z,4.69
2023-03-06T10:16:49.458Z,4.73
2023-03-06T10:19:21.164Z,4.80
2023-03-06T10:22:01.155Z,4.97
2023-03-06T10:25:10.421Z,4.95
2023-03-06T10:27:51.337Z,5.04
2023-03-06T10:30:57.562Z,5.17
2023-03-06T10:33:37.441Z,4.95
2023-03-06T10:36:06.306Z,5.18
2023-03-06T10:38:39.112Z,5.22
2023-03-06T10:41:59.681Z,5.20
2023-03-06T10:44:29.188Z,5.27
2023-03-06T10:47:02.901Z,5.51
2023-03-06T10:49:31.407Z,5.69
2023-03-06T10:52:25.118Z,5.47
2023-03-06T10:54:57.459Z,5.86
2023-03-06T10:57:34.275Z,5.86
2023-03-06T11:00:26.313Z,5.88
2023-03-06T11:03:24.240Z,6.12
2023-03-06T11:06:31.427Z,5.85
2023-03-06T11:09:25.863Z,5.95
2023-03-06T11:12:17.634Z,6.21
2023-03-06T11:14:45.762Z,6.37
2023-03-06T11:17:35.904Z,6.38
2023-03-06T11:20:24.873Z,6.64
2023-03-06T11:23:06.371Z,6.67
2023-03-06T11:25:58.170Z,6.60
2023-03-06T11:28:59.029Z,6.82
2023-03-06T11:31:48.940Z,6.99
2023-03-06T11:34:53.692Z,7.18
2023-03-06T11:37:36.112Z,7.24
2023-03-06T11:40:30.553Z,7.17
2023-03-06T11:43:12.707Z,7.55
2023-03-06T11:46:02.956Z,7.48
2023-03-06T11:48:44.881Z,7.66
2023-03-06T11:51:26.537Z,7.71
2023-03-06T11:54:00.879Z,7.82
2023-03-06T11:56:55.652Z,7.99
2023-03-06T11:59:55.160Z,7.93
2023-03-06T12:02:44.634Z,7.96
2023-03-06T12:05:26.727Z,7.94
2023-03-06T12:08:08.155Z,8.13
2023-03-06T12:10:54.841Z,8.27
2023-03-06T12:13:29.816Z,8.49
2023-03-06T12:16:34.840Z,8.31
2023-03-06T12:19:39.135Z,8.58
2023-03-06T12:22:22.021Z,8.52
2023-03-06T12:25:17.727Z,8.40
2023-03-06T12:31:36.733Z,8.51
2023-03-06T12:34:48.034Z,8.60
2023-03-06T12:38:01.775Z,8.51
2023-03-06T12:40:57.356Z,8.73
2023-03-06T12:43:51.328Z,8.82
2023-03-06T12:46:32.955Z,8.77
2023-03-06T12:49:35.205Z,8.65
2023-03-06T12:52:29.706Z,8.59
2023-03-06T12:57:49.534Z,8.54
2023-03-06T13:01:07.181Z,8.37
2023-03-06T13:04:00.216Z,8.73
2023-03-06T13:07:04.992Z,8.83
2023-03-06T13:10:10.360Z,8.90
2023-03-06T13:16:39.184Z,8.59
2023-03-06T13:19:25.288Z,8.67
2023-03-06T13:22:04.016Z,8.63
2023-03-06T13:24:38.927Z,8.57
2023-03-06T13:27:15.585Z,8.57
2023-03-06T13:29:53.133Z,8.69
2023-03-06T13:32:33.226Z,8.88
2023-03-06T13:35:01.087Z,8.89
2023-03-06T13:37:35.630Z,8.95
2023-03-06T13:40:11.763Z,9.00
2023-03-06T13:42:43.532Z,8.76
2023-03-06T13:45:25.249Z,8.82
2023-03-06T13:48:27.327Z,8.75
2023-03-06T13:50:54.035Z,8.83
2023-03-06T13:53:24.624Z,8.65
2023-03-06T13:56:32.084Z,8.81
2023-03-06T14:00:08.222Z,8.79
2023-03-06T14:03:04.483Z,8.88
2023-03-06T14:05:47.534Z,8.85
2023-03-06T14:08:35.173Z,8.66
2023-03-06T14:11:21.818Z,8.76
2023-03-06T14:13:53.746Z,8.83
2023-03-06T14:16:49.508Z,8.57
2023-03-06T14:19:20.659Z,8.96
2023-03-06T14:21:55.289Z,8.85
2023-03-06T14:24:36.152Z,8.71
2023-03-06T14:27:22.395Z,8.63
2023-03-06T14:30:14.327Z,8.62
2023-03-06T14:32:57.810Z,8.65
2023-03-06T14:35:32.910Z,8.62
2023-03-06T14:38:10.222Z,8.76
2023-03-06T14:41:28.777Z,8.90
2023-03-06T14:44:28.306Z,8.95
2023-03-06T14:46:58.461Z,8.90
2023-03-06T14:49:34.076Z,8.85
2023-03-06T14:52:24.650Z,8.90
2023-03-06T14:54:54.120Z,8.85
2023-03-06T14:57:24.169Z,9.04
2023-03-06T15:00:01.409Z,8.93
2023-03-06T15:02:33.186Z,8.93
2023-03-06T15:05:30.189Z,8.81
2023-03-06T15:08:09.631Z,9.02
2023-03-06T15:10:39.568Z,8.92
2023-03-06T15:13:29.134Z,8.99
2023-03-06T15:16:01.880Z,8.99
2023-03-06T15:18:44.945Z,8.76
2023-03-06T15:21:19.565Z,8.89
2023-03-06T15:23:51.181Z,8.84
2023-03-06T15:26:39.521Z,8.80
2023-03-06T15:29:24.963Z,8.73
2023-03-06T15:32:22.594Z,8.80
2023-03-06T15:35:37.865Z,8.65
2023-03-06T15:38:46.679Z,8.73
2023-03-06T15:42:02.896Z,8.87
2023-03-06T15:45:10.845Z,8.93
2023-03-06T15:47:39.509Z,8.79
2023-03-06T15:50:22.533Z,8.60
2023-03-06T15:53:04.006Z,8.54
2023-03-06T15:55:34.521Z,8.57
2023-03-06T15:58:06.120Z,8.53
2023-03-06T16:04:27.115Z,8.54
2023-03-06T16:06:54.657Z,8.54
2023-03-06T16:09:23.667Z,8.52
2023-03-06T16:11:51.204Z,8.35
2023-03-06T16:14:24.978Z,8.44
2023-03-06T16:16:54.391Z,8.18
2023-03-06T16:19:26.386Z,8.12
2023-03-06T16:21:55.208Z,8.19
2023-03-06T16:24:22.433Z,8.16
2023-03-06T16:26:52.820Z,8.03
2023-03-06T16:29:32.873Z,8.03
2023-03-06T16:37:16.867Z,8.03
2023-03-06T16:40:20.254Z,7.94
2023-03-06T16:42:48.174Z,7.55
2023-03-06T16:45:16.652Z,7.65
2023-03-06T16:47:46.245Z,7.65
2023-03-06T16:50:32.004Z,7.70
2023-03-06T16:53:07.483Z,7.48
2023-03-06T16:55:35.586Z,7.59
2023-03-06T16:58:02.901Z,7.47
2023-03-06T17:00:32.249Z,7.44
2023-03-06T17:03:04.059Z,7.43
2023-03-06T17:05:36.054Z,7.49
2023-03-06T17:08:05.029Z,7.37
2023-03-06T17:10:32.797Z,7.27
2023-03-06T17:13:00.952Z,7.35
2023-03-06T17:15:28.216Z,7.10
2023-03-06T17:18:08.081Z,7.31
2023-03-06T17:20:36.717Z,7.06
2023-03-06T17:23:03.913Z,6.94
2023-03-06T17:25:55.058Z,7.01
2023-03-06T17:28:25.489Z,7.04
2023-03-06T17:30:53.568Z,6.80
2023-03-06T17:33:28.141Z,6.98
2023-03-06T17:36:03.233Z,6.81
2023-03-06T17:38:33.235Z,6.71
2023-03-06T17:41:06.430Z,6.66
2023-03-06T17:43:34.539Z,6.41
2023-03-06T17:46:08.011Z,6.47
2023-03-06T17:48:37.100Z,6.55
2023-03-06T17:51:05.267Z,6.23
2023-03-06T17:53:41.890Z,6.24
2023-03-06T17:56:23.209Z,6.13
2023-03-06T17:58:51.797Z,6.17
2023-03-06T18:01:22.481Z,6.11
2023-03-06T18:03:51.699Z,5.95
2023-03-06T18:06:22.409Z,5.68
2023-03-06T18:08:52.361Z,5.81
2023-03-06T18:11:27.450Z,5.68
2023-03-06T18:13:56.800Z,5.62
2023-03-06T18:16:26.904Z,5.53
2023-03-06T18:18:55.913Z,5.45
2023-03-06T18:21:24.252Z,5.29
2023-03-06T18:23:52.725Z,4.87
2023-03-06T18:26:23.110Z,4.97
2023-03-06T18:28:55.554Z,4.88
2023-03-06T18:31:34.083Z,4.51
2023-03-06T18:34:04.607Z,4.63
2023-03-06T18:36:33.542Z,4.54
2023-03-06T18:39:04.085Z,4.43
2023-03-06T18:41:31.974Z,3.98
2023-03-06T18:44:01.236Z,4.24
2023-03-06T18:46:34.234Z,4.14
2023-03-06T18:49:01.850Z,4.06
2023-03-06T18:51:29.112Z,3.90
2023-03-06T18:54:02.267Z,3.92
2023-03-06T18:56:29.885Z,3.56
2023-03-06T18:59:00.707Z,3.79
2023-03-06T19:01:30.870Z,3.73
2023-03-06T19:04:02.850Z,3.64
2023-03-06T19:06:30.701Z,3.55
2023-03-06T19:09:02.462Z,3.44
2023-03-06T19:11:30.902Z,3.23
2023-03-06T19:13:58.653Z,3.23
2023-03-06T19:16:28.633Z,3.09
2023-03-06T19:18:57.471Z,3.13
2023-03-06T19:21:26.987Z,3.08
2023-03-06T19:23:54.844Z,2.96
2023-03-06T19:26:22.410Z,2.73
2023-03-06T19:28:50.052Z,2.86
2023-03-06T19:31:21.606Z,2.68
2023-03-06T19:33:50.573Z,2.67
2023-03-06T19:36:18.989Z,2.66
2023-03-06T19:38:52.662Z,2.51
2023-03-06T19:41:19.856Z,2.53
2023-03-06T19:43:52.401Z,2.38
2023-03-06T19:46:21.630Z,2.41
2023-03-06T19:48:57.111Z,2.27
2023-03-06T19:51:29.361Z,2.22
2023-03-06T19:54:01.541Z,2.21
2023-03-06T19:56:42.058Z,2.17
2023-03-06T19:59:24.692Z,2.11
2023-03-06T20:01:58.984Z,2.08
2023-03-06T20:07:10.391Z,1.88
2023-03-06T20:09:37.702Z,1.69
2023-03-06T20:12:07.813Z,1.71
2023-03-06T20:14:35.717Z,1.54
2023-03-06T20:17:03.256Z,1.47
2023-03-06T20:19:38.282Z,1.46
2023-03-06T20:22:14.025Z,1.45
2023-03-06T20:24:44.275Z,1.30
2023-03-06T20:27:11.701Z,1.26
2023-03-06T20:29:44.909Z,1.25
2023-03-06T20:34:57.382Z,0.99
2023-03-06T20:37:24.810Z,1.04
2023-03-06T20:39:58.161Z,1.04
2023-03-06T20:42:29.368Z,0.70
2023-03-06T20:45:09.157Z,0.92
2023-03-06T20:47:36.607Z,0.83
2023-03-06T20:50:07.847Z,0.78
2023-03-06T20:52:35.225Z,0.79
2023-03-06T20:55:11.894Z,0.75
2023-03-06T20:57:43.093Z,0.74
2023-03-06T21:00:11.608Z,0.64
2023-03-06T21:02:38.940Z,0.66
2023-03-06T21:05:07.014Z,0.64
2023-03-06T21:07:34.531Z,0.69
2023-03-06T21:10:01.697Z,0.71
2023-03-06T21:12:35.952Z,0.78
2023-03-06T21:15:07.290Z,0.72
2023-03-06T21:17:37.135Z,0.67
2023-03-06T21:20:05.984Z,0.53
2023-03-06T21:22:33.478Z,0.66
2023-03-06T21:25:03.805Z,0.71
2023-03-06T21:27:31.115Z,0.57
2023-03-06T21:29:59.521Z,0.56
2023-03-06T21:32:27.033Z,0.47
2023-03-06T21:34:59.788Z,0.44
2023-03-06T21:37:31.198Z,0.41
2023-03-06T21:40:02.065Z,0.09
2023-03-06T21:42:29.762Z,0.17
2023-03-06T21:45:01.933Z,0.28
2023-03-06T21:47:39.210Z,0.26
2023-03-06T21:50:10.176Z,0.19
2023-03-06T21:52:46.673Z,0.14
2023-03-06T21:55:14.311Z,0.12
2023-03-06T21:57:50.577Z,0.13
2023-03-06T22:00:21.009Z,0.12
2023-03-06T22:02:50.315Z,0.02
2023-03-06T22:05:17.893Z,0.00
2023-03-06T22:07:54.096Z,-0.09
2023-03-06T22:10:24.204Z,-0.06
2023-03-06T22:12:51.789Z,-0.04
2023-03-06T22:15:20.665Z,-0.16
2023-03-06T22:17:48.902Z,-0.18
2023-03-06T22:20:16.208Z,-0.14
2023-03-06T22:22:44.324Z,-0.16
2023-03-06T22:25:21.989Z,-0.14
2023-03-06T22:27:49.493Z,-0.32
2023-03-06T22:30:18.111Z,-0.17
2023-03-06T22:32:45.498Z,-0.16
2023-03-06T22:35:18.483Z,-0.17
2023-03-06T22:37:49.173Z,-0.21
2023-03-06T22:40:20.132Z,-0.20
2023-03-06T22:42:47.527Z,-0.19
2023-03-06T22:45:15.184Z,-0.18
2023-03-06T22:47:42.554Z,-0.26
2023-03-06T22:50:10.770Z,-0.14
2023-03-06T22:52:38.417Z,-0.20
2023-03-06T22:55:09.741Z,-0.29
2023-03-06T22:57:37.259Z,-0.23
2023-03-06T23:00:05.356Z,-0.24
2023-03-06T23:02:34.566Z,-0.25
2023-03-06T23:05:06.870Z,-0.22
2023-03-06T23:07:40.504Z,-0.32
2023-03-06T23:10:07.720Z,-0.31
2023-03-06T23:12:53.686Z,-0.35
2023-03-06T23:15:39.631Z,-0.41
2023-03-06T23:18:43.090Z,-0.35
2023-03-06T23:21:33.129Z,-0.34
2023-03-06T23:24:19.004Z,-0.39
2023-03-06T23:26:56.059Z,-0.39
2023-03-06T23:29:24.796Z,-0.46
2023-03-06T23:31:53.108Z,-0.50
2023-03-06T23:34:20.351Z,-0.51
2023-03-06T23:36:47.572Z,-0.59
2023-03-06T23:39:15.030Z,-0.63
2023-03-06T23:41:42.880Z,-0.67
2023-03-06T23:44:10.059Z,-0.72
2023-03-06T23:46:37.342Z,-0.66
2023-03-06T23:49:08.242Z,-0.72
2023-03-06T23:51:39.794Z,-0.71
2023-03-06T23:54:07.357Z,-0.73
2023-03-06T23:56:36.830Z,-0.73
2023-03-06T23:59:04.147Z,-0.79
